createdAt,value
2024-02-22T00:01:53.888Z,74.53
2024-02-22T00:04:26.488Z,74.55
2024-02-22T00:07:00.393Z,74.58
2024-02-22T00:09:33.315Z,74.38
2024-02-22T00:12:06.166Z,74.61
2024-02-22T00:14:41.373Z,74.49
2024-02-22T00:17:13.633Z,74.47
2024-02-22T00:19:46.165Z,74.35
2024-02-22T00:22:18.417Z,74.37
2024-02-22T00:24:50.871Z,74.62
2024-02-22T00:27:23.431Z,74.78
2024-02-22T00:29:55.625Z,74.70
2024-02-22T00:32:28.305Z,74.85
2024-02-22T00:35:00.612Z,74.74
2024-02-22T00:37:36.793Z,75.03
2024-02-22T00:40:11.965Z,74.85
2024-02-22T00:42:47.232Z,75.05
2024-02-22T00:45:21.299Z,75.02
2024-02-22T00:47:53.683Z,75.05
2024-02-22T00:50:27.735Z,74.96
2024-02-22T00:53:00.509Z,74.99
2024-02-22T00:55:33.823Z,75.04
2024-02-22T00:58:09.557Z,74.90
2024-02-22T01:00:40.997Z,74.94
2024-02-22T01:03:13.772Z,74.90
2024-02-22T01:05:46.194Z,75.08
2024-02-22T01:08:18.821Z,75.26
2024-02-22T01:10:51.380Z,75.33
2024-02-22T01:13:23.973Z,75.42
2024-02-22T01:15:56.229Z,75.27
2024-02-22T01:18:29.425Z,75.22
2024-02-22T01:21:01.998Z,75.28
2024-02-22T01:23:34.465Z,75.23
2024-02-22T01:26:06.957Z,75.17
2024-02-22T01:28:39.273Z,75.09
2024-02-22T01:31:11.968Z,75.18
2024-02-22T01:33:48.150Z,74.82
2024-02-22T01:36:20.929Z,74.65
2024-02-22T01:38:53.428Z,74.83
2024-02-22T01:41:28.887Z,74.96
2024-02-22T01:44:00.182Z,74.93
2024-02-22T01:46:33.052Z,75.13
2024-02-22T01:49:10.664Z,75.18
2024-02-22T01:51:43.478Z,74.94
2024-02-22T01:54:16.184Z,74.89
2024-02-22T01:56:48.460Z,74.71
2024-02-22T01:59:21.788Z,74.69
2024-02-22T02:01:55.995Z,74.94
2024-02-22T02:04:29.797Z,75.03
2024-02-22T02:07:02.321Z,75.02
2024-02-22T02:09:34.771Z,74.99
2024-02-22T02:12:08.914Z,74.85
2024-02-22T02:14:41.340Z,74.97
2024-02-22T02:17:14.319Z,74.80
2024-02-22T02:19:48.318Z,74.77
2024-02-22T02:22:29.083Z,74.64
2024-02-22T02:25:06.294Z,74.84
2024-02-22T02:27:39.771Z,74.97
2024-02-22T02:30:13.028Z,74.37
2024-02-22T02:32:45.364Z,74.44
2024-02-22T02:35:18.396Z,74.47
2024-02-22T02:37:50.737Z,74.37
2024-02-22T02:40:23.281Z,74.66
2024-02-22T02:42:55.603Z,74.92
2024-02-22T02:45:28.072Z,74.84
2024-02-22T02:48:01.038Z,74.89
2024-02-22T02:50:33.536Z,74.51
2024-02-22T02:53:05.910Z,74.53
2024-02-22T02:55:38.646Z,74.25
2024-02-22T02:58:10.790Z,74.37
2024-02-22T03:00:43.143Z,74.13
2024-02-22T03:03:15.817Z,74.39
2024-02-22T03:05:49.203Z,74.56
2024-02-22T03:08:22.976Z,74.63
2024-02-22T03:10:55.055Z,74.31
2024-02-22T03:13:27.753Z,74.30
2024-02-22T03:16:00.371Z,73.92
2024-02-22T03:18:35.337Z,74.14
2024-02-22T03:21:10.460Z,74.37
2024-02-22T03:23:43.005Z,74.44
2024-02-22T03:26:16.504Z,74.47
2024-02-22T03:28:49.209Z,74.61
2024-02-22T03:31:24.263Z,74.23
2024-02-22T03:33:57.389Z,74.36
2024-02-22T03:36:30.406Z,74.29
2024-02-22T03:39:05.514Z,74.29
2024-02-22T03:41:39.651Z,74.31
2024-02-22T03:44:13.128Z,74.39
2024-02-22T03:46:50.399Z,74.25
2024-02-22T03:49:22.751Z,74.50
2024-02-22T03:51:56.252Z,74.61
2024-02-22T03:54:29.026Z,74.57
2024-02-22T03:57:02.642Z,74.66
2024-02-22T03:59:35.010Z,74.72
2024-02-22T04:02:08.854Z,74.45
2024-02-22T04:04:43.634Z,74.15
2024-02-22T04:07:19.941Z,74.25
2024-02-22T04:09:55.033Z,74.50
2024-02-22T04:12:28.083Z,74.58
2024-02-22T04:15:01.408Z,74.66
2024-02-22T04:17:35.505Z,74.66
2024-02-22T04:20:10.560Z,74.57
2024-02-22T04:22:52.030Z,74.66
2024-02-22T04:25:26.268Z,74.72
2024-02-22T04:27:59.837Z,74.74
2024-02-22T04:30:33.172Z,74.89
2024-02-22T04:33:07.733Z,74.93
2024-02-22T04:35:42.658Z,74.98
2024-02-22T04:38:16.219Z,75.05
2024-02-22T04:40:51.584Z,74.88
2024-02-22T04:43:24.869Z,75.05
2024-02-22T04:45:58.093Z,75.19
2024-02-22T04:48:32.969Z,75.23
2024-02-22T04:51:05.924Z,75.25
2024-02-22T04:53:39.546Z,75.01
2024-02-22T04:56:14.609Z,75.18
2024-02-22T04:58:47.577Z,74.64
2024-02-22T05:01:20.709Z,74.82
2024-02-22T05:03:53.884Z,74.81
2024-02-22T05:06:27.416Z,74.69
2024-02-22T05:09:00.557Z,74.88
2024-02-22T05:11:33.404Z,74.65
2024-02-22T05:14:07.196Z,74.93
2024-02-22T05:16:40.717Z,75.24
2024-02-22T05:19:14.896Z,75.23
2024-02-22T05:21:50.555Z,75.37
2024-02-22T05:24:24.656Z,75.37
2024-02-22T05:26:57.124Z,75.05
2024-02-22T05:29:30.097Z,74.72
2024-02-22T05:32:05.474Z,74.17
2024-02-22T05:34:39.659Z,74.49
2024-02-22T05:37:13.987Z,74.39
2024-02-22T05:39:47.666Z,74.37
2024-02-22T05:42:20.209Z,74.34
2024-02-22T05:44:54.079Z,74.55
2024-02-22T05:47:28.061Z,74.67
2024-02-22T05:50:01.908Z,74.78
2024-02-22T05:52:36.602Z,74.44
2024-02-22T05:55:08.578Z,74.49
2024-02-22T05:57:41.300Z,74.05
2024-02-22T06:00:17.052Z,74.15
2024-02-22T06:02:50.028Z,74.41
2024-02-22T06:05:24.556Z,74.23
2024-02-22T06:07:59.458Z,73.89
2024-02-22T06:10:35.549Z,74.02
2024-02-22T06:13:09.777Z,74.08
2024-02-22T06:15:44.106Z,73.79
2024-02-22T06:18:20.459Z,73.86
2024-02-22T06:20:54.520Z,73.76
2024-02-22T06:23:29.197Z,73.63
2024-02-22T06:26:03.206Z,73.40
2024-02-22T06:28:37.188Z,73.69
2024-02-22T06:31:10.268Z,73.86
2024-02-22T06:33:43.496Z,74.00
2024-02-22T06:36:18.096Z,73.61
2024-02-22T06:38:52.883Z,73.64
2024-02-22T06:41:27.331Z,73.87
2024-02-22T06:44:02.499Z,73.25
2024-02-22T06:46:35.904Z,73.46
2024-02-22T06:49:10.564Z,73.50
2024-02-22T06:51:45.473Z,73.60
2024-02-22T06:54:18.886Z,73.40
2024-02-22T06:56:51.714Z,73.01
2024-02-22T06:59:25.011Z,73.10
2024-02-22T07:01:58.316Z,73.18
2024-02-22T07:04:31.544Z,73.08
2024-02-22T07:07:05.167Z,72.77
2024-02-22T07:09:38.283Z,72.91
2024-02-22T07:12:11.454Z,72.88
2024-02-22T07:14:44.995Z,72.41
2024-02-22T07:17:22.469Z,72.17
2024-02-22T07:19:59.053Z,72.37
2024-02-22T07:22:35.074Z,72.14
2024-02-22T07:25:12.025Z,72.35
2024-02-22T07:27:45.380Z,72.85
2024-02-22T07:30:18.965Z,72.63
2024-02-22T07:32:53.968Z,72.43
2024-02-22T07:35:30.181Z,72.62
2024-02-22T07:38:02.850Z,72.74
2024-02-22T07:40:35.488Z,72.60
2024-02-22T07:43:08.756Z,72.15
2024-02-22T07:45:45.366Z,72.31
2024-02-22T07:48:19.011Z,72.56
2024-02-22T07:50:51.970Z,72.43
2024-02-22T07:53:25.452Z,72.23
2024-02-22T07:55:58.900Z,71.76
2024-02-22T07:58:33.565Z,71.59
2024-02-22T08:01:07.402Z,72.04
2024-02-22T08:03:40.232Z,72.23
2024-02-22T08:06:13.887Z,72.04
2024-02-22T08:08:47.816Z,72.21
2024-02-22T08:11:22.516Z,72.37
2024-02-22T08:13:56.554Z,72.06
2024-02-22T08:16:30.705Z,72.12
2024-02-22T08:19:05.700Z,72.08
2024-02-22T08:21:39.031Z,71.97
2024-02-22T08:24:14.731Z,72.19
2024-02-22T08:26:48.337Z,71.68
2024-02-22T08:29:22.576Z,71.29
2024-02-22T08:31:58.729Z,70.76
2024-02-22T08:34:32.170Z,70.84
2024-02-22T08:37:05.642Z,71.43
2024-02-22T08:39:38.135Z,71.29
2024-02-22T08:42:11.787Z,70.86
2024-02-22T08:44:45.828Z,71.11
2024-02-22T08:47:20.265Z,71.03
2024-02-22T08:49:54.789Z,70.76
2024-02-22T08:52:28.537Z,70.01
2024-02-22T08:55:03.167Z,69.90
2024-02-22T09:00:12.016Z,69.40
2024-02-22T09:02:46.211Z,69.57
2024-02-22T09:05:18.977Z,69.90
2024-02-22T09:07:53.703Z,69.93
2024-02-22T09:10:27.637Z,70.20
2024-02-22T09:13:00.938Z,69.90
2024-02-22T09:15:33.880Z,69.75
2024-02-22T09:18:07.723Z,69.55
2024-02-22T09:20:40.466Z,69.14
2024-02-22T09:23:15.016Z,68.66
2024-02-22T09:25:48.136Z,68.60
2024-02-22T09:28:21.717Z,68.74
2024-02-22T09:30:55.004Z,68.79
2024-02-22T09:33:29.604Z,69.01
2024-02-22T09:36:02.405Z,68.52
2024-02-22T09:38:36.103Z,68.78
2024-02-22T09:41:10.260Z,68.63
2024-02-22T09:43:46.010Z,69.29
2024-02-22T09:46:20.715Z,68.75
2024-02-22T09:48:55.564Z,68.72
2024-02-22T09:51:29.764Z,68.84
2024-02-22T09:54:03.964Z,68.65
2024-02-22T09:56:40.148Z,68.89
2024-02-22T09:59:18.517Z,69.31
2024-02-22T10:01:52.136Z,69.09
2024-02-22T10:04:26.908Z,69.37
2024-02-22T10:07:05.442Z,69.47
2024-02-22T10:09:46.590Z,70.04
2024-02-22T10:12:28.960Z,70.41
2024-02-22T10:15:06.937Z,70.21
2024-02-22T10:17:41.268Z,70.58
2024-02-22T10:20:13.933Z,70.38
2024-02-22T10:22:48.741Z,70.83
2024-02-22T10:25:22.309Z,69.94
2024-02-22T10:27:55.578Z,69.65
2024-02-22T10:30:30.867Z,69.35
2024-02-22T10:33:04.886Z,69.83
2024-02-22T10:35:39.308Z,69.78
2024-02-22T10:38:12.979Z,69.73
2024-02-22T10:40:50.489Z,69.41
2024-02-22T10:43:25.888Z,69.76
2024-02-22T10:46:04.999Z,69.90
2024-02-22T10:48:40.482Z,69.59
2024-02-22T10:51:15.264Z,69.34
2024-02-22T10:53:54.970Z,69.63
2024-02-22T10:56:32.260Z,70.06
2024-02-22T10:59:10.516Z,70.20
2024-02-22T11:01:46.159Z,70.06
2024-02-22T11:04:20.247Z,70.30
2024-02-22T11:06:53.402Z,70.60
2024-02-22T11:09:26.992Z,69.97
2024-02-22T11:12:03.086Z,70.00
2024-02-22T11:14:40.734Z,70.01
2024-02-22T11:17:21.513Z,69.67
2024-02-22T11:19:55.689Z,69.97
2024-02-22T11:22:32.019Z,70.10
2024-02-22T11:25:09.013Z,69.97
2024-02-22T11:27:43.747Z,69.67
2024-02-22T11:30:18.185Z,69.32
2024-02-22T11:32:54.013Z,69.67
2024-02-22T11:35:29.374Z,69.28
2024-02-22T11:38:07.659Z,69.57
2024-02-22T11:40:41.062Z,69.89
2024-02-22T11:43:15.088Z,69.76
2024-02-22T11:45:49.616Z,69.64
2024-02-22T11:48:24.200Z,69.98
2024-02-22T11:50:57.042Z,70.17
2024-02-22T11:53:30.781Z,69.89
2024-02-22T11:56:03.965Z,69.83
2024-02-22T11:58:39.137Z,69.92
2024-02-22T12:01:12.126Z,69.80
2024-02-22T12:03:48.103Z,70.37
2024-02-22T12:06:22.981Z,69.46
2024-02-22T12:08:57.388Z,68.90
2024-02-22T12:11:29.620Z,69.06
2024-02-22T12:14:06.470Z,69.60
2024-02-22T12:16:41.375Z,69.81
2024-02-22T12:19:22.035Z,69.65
2024-02-22T12:21:55.845Z,69.82
2024-02-22T12:24:30.310Z,69.89
2024-02-22T12:27:05.194Z,69.56
2024-02-22T12:29:39.151Z,69.23
2024-02-22T12:32:13.899Z,69.56
2024-02-22T12:34:47.486Z,69.80
2024-02-22T12:37:21.056Z,69.61
2024-02-22T12:39:54.300Z,69.61
2024-02-22T12:42:27.815Z,69.52
2024-02-22T12:45:00.936Z,69.30
2024-02-22T12:47:35.258Z,69.54
2024-02-22T12:50:09.398Z,69.77
2024-02-22T12:52:42.364Z,69.74
2024-02-22T12:55:15.595Z,69.19
2024-02-22T12:57:51.113Z,68.85
2024-02-22T13:00:25.249Z,68.87
2024-02-22T13:02:59.689Z,68.92
2024-02-22T13:05:32.508Z,68.66
2024-02-22T13:08:12.904Z,68.96
2024-02-22T13:10:41.075Z,69.09
2024-02-22T13:13:15.701Z,68.34
2024-02-22T13:15:49.906Z,68.70
2024-02-22T13:18:22.703Z,68.70
2024-02-22T13:20:56.621Z,68.67
2024-02-22T13:23:30.465Z,68.48
2024-02-22T13:26:10.350Z,68.13
2024-02-22T13:28:42.510Z,68.13
2024-02-22T13:31:15.607Z,68.64
2024-02-22T13:33:50.063Z,68.62
2024-02-22T13:36:23.076Z,69.07
2024-02-22T13:38:56.089Z,69.13
2024-02-22T13:41:31.040Z,69.30
2024-02-22T13:44:11.613Z,69.30
2024-02-22T13:46:40.033Z,69.28
2024-02-22T13:49:14.716Z,69.42
2024-02-22T13:51:48.589Z,69.56
2024-02-22T13:54:21.593Z,69.14
2024-02-22T13:56:55.945Z,68.73
2024-02-22T13:59:30.308Z,68.88
2024-02-22T14:02:05.461Z,68.96
2024-02-22T14:04:38.900Z,68.62
2024-02-22T14:07:11.867Z,68.49
2024-02-22T14:09:45.037Z,68.74
2024-02-22T14:12:18.276Z,68.78
2024-02-22T14:14:51.282Z,68.69
2024-02-22T14:17:26.320Z,68.78
2024-02-22T14:19:59.833Z,68.76
2024-02-22T14:22:33.743Z,68.73
2024-02-22T14:25:08.494Z,68.67
2024-02-22T14:27:42.250Z,68.83
2024-02-22T14:30:17.819Z,68.83
2024-02-22T14:32:52.049Z,68.71
2024-02-22T14:35:25.107Z,69.15
2024-02-22T14:40:52.017Z,69.20
2024-02-22T14:43:23.760Z,69.22
2024-02-22T14:45:56.952Z,69.44
2024-02-22T14:48:29.857Z,69.53
2024-02-22T14:51:02.768Z,69.45
2024-02-22T14:53:38.132Z,69.23
2024-02-22T14:56:12.697Z,69.43
2024-02-22T14:58:50.552Z,69.39
2024-02-22T15:01:26.446Z,69.18
2024-02-22T15:03:59.619Z,69.50
2024-02-22T15:06:32.822Z,69.60
2024-02-22T15:09:06.955Z,69.53
2024-02-22T15:11:40.557Z,70.13
2024-02-22T15:14:14.456Z,69.37
2024-02-22T15:16:48.384Z,69.61
2024-02-22T15:19:21.950Z,69.28
2024-02-22T15:21:56.140Z,69.28
2024-02-22T15:24:30.352Z,69.35
2024-02-22T15:27:04.960Z,69.60
2024-02-22T15:29:39.507Z,69.48
2024-02-22T15:32:13.115Z,69.32
2024-02-22T15:34:48.046Z,70.05
2024-02-22T15:37:22.598Z,70.17
2024-02-22T15:39:57.574Z,70.58
2024-02-22T15:42:31.356Z,70.36
2024-02-22T15:45:05.273Z,69.76
2024-02-22T15:47:38.302Z,69.89
2024-02-22T15:50:12.374Z,69.79
2024-02-22T15:52:45.440Z,69.59
2024-02-22T15:55:18.667Z,69.63
2024-02-22T15:57:51.676Z,69.15
2024-02-22T16:00:25.790Z,69.50
2024-02-22T16:02:59.123Z,69.55
2024-02-22T16:05:34.278Z,69.52
2024-02-22T16:08:08.930Z,69.49
2024-02-22T16:10:42.831Z,69.50
2024-02-22T16:13:16.804Z,69.44
2024-02-22T16:15:50.900Z,69.37
2024-02-22T16:18:25.860Z,68.94
2024-02-22T16:20:58.795Z,69.09
2024-02-22T16:23:33.156Z,69.18
2024-02-22T16:26:06.350Z,69.46
2024-02-22T16:28:39.877Z,69.30
2024-02-22T16:31:13.654Z,69.56
2024-02-22T16:33:47.152Z,69.63
2024-02-22T16:36:20.603Z,69.51
2024-02-22T16:38:58.927Z,69.83
2024-02-22T16:41:32.169Z,70.06
2024-02-22T16:44:08.952Z,69.81
2024-02-22T16:46:47.790Z,69.78
2024-02-22T16:49:23.527Z,69.79
2024-02-22T16:51:57.897Z,69.12
2024-02-22T16:54:31.816Z,69.26
2024-02-22T16:57:08.493Z,69.62
2024-02-22T16:59:43.748Z,69.47
2024-02-22T17:02:17.985Z,69.51
2024-02-22T17:04:51.076Z,69.79
2024-02-22T17:07:24.019Z,69.78
2024-02-22T17:09:57.617Z,69.67
2024-02-22T17:12:31.403Z,69.65
2024-02-22T17:15:07.149Z,69.05
2024-02-22T17:17:43.865Z,69.58
2024-02-22T17:20:19.178Z,69.67
2024-02-22T17:22:54.284Z,69.15
2024-02-22T17:25:28.153Z,69.55
2024-02-22T17:28:01.732Z,70.12
2024-02-22T17:30:35.437Z,70.23
2024-02-22T17:33:08.776Z,70.38
2024-02-22T17:35:42.902Z,70.37
2024-02-22T17:38:16.395Z,70.27
2024-02-22T17:40:51.190Z,70.28
2024-02-22T17:43:23.794Z,70.41
2024-02-22T17:45:57.225Z,69.93
2024-02-22T17:48:31.124Z,70.42
2024-02-22T17:51:03.930Z,70.25
2024-02-22T17:53:38.195Z,70.31
2024-02-22T17:56:11.182Z,70.31
2024-02-22T17:58:51.645Z,70.02
2024-02-22T18:01:20.378Z,70.19
2024-02-22T18:03:53.884Z,70.21
2024-02-22T18:06:26.786Z,70.24
2024-02-22T18:08:59.151Z,70.43
2024-02-22T18:11:32.686Z,70.58
2024-02-22T18:14:05.223Z,70.81
2024-02-22T18:16:38.224Z,70.64
2024-02-22T18:19:10.842Z,70.84
2024-02-22T18:21:43.372Z,71.03
2024-02-22T18:24:16.643Z,71.09
2024-02-22T18:26:49.982Z,71.24
2024-02-22T18:29:24.689Z,71.08
2024-02-22T18:31:57.761Z,70.75
2024-02-22T18:34:30.120Z,70.91
2024-02-22T18:37:03.705Z,70.65
2024-02-22T18:39:36.475Z,70.18
2024-02-22T18:42:09.182Z,70.43
2024-02-22T18:44:44.081Z,70.16
2024-02-22T18:47:16.535Z,70.26
2024-02-22T18:49:49.265Z,70.29
2024-02-22T18:52:24.686Z,70.59
2024-02-22T18:54:56.469Z,70.75
2024-02-22T18:57:29.151Z,70.68
2024-02-22T19:00:01.898Z,70.61
2024-02-22T19:02:35.392Z,70.89
2024-02-22T19:05:09.407Z,71.15
2024-02-22T19:07:42.753Z,71.52
2024-02-22T19:10:17.041Z,71.10
2024-02-22T19:12:50.089Z,71.22
2024-02-22T19:15:22.610Z,71.20
2024-02-22T19:17:56.017Z,70.89
2024-02-22T19:20:28.854Z,70.73
2024-02-22T19:23:01.514Z,70.95
2024-02-22T19:25:33.916Z,71.05
2024-02-22T19:28:07.390Z,71.36
2024-02-22T19:30:41.968Z,71.40
2024-02-22T19:33:17.472Z,71.73
2024-02-22T19:35:49.552Z,71.72
2024-02-22T19:38:22.418Z,71.64
2024-02-22T19:40:56.932Z,71.76
2024-02-22T19:43:30.135Z,71.82
2024-02-22T19:46:04.236Z,71.79
2024-02-22T19:48:37.966Z,71.79
2024-02-22T19:51:10.676Z,71.82
2024-02-22T19:53:42.594Z,71.41
2024-02-22T19:56:15.135Z,71.41
2024-02-22T19:58:50.995Z,71.57
2024-02-22T20:01:23.398Z,71.87
2024-02-22T20:03:58.947Z,71.81
2024-02-22T20:06:32.262Z,71.89
2024-02-22T20:09:04.964Z,72.05
2024-02-22T20:11:39.054Z,72.16
2024-02-22T20:14:11.821Z,72.12
2024-02-22T20:16:44.392Z,72.06
2024-02-22T20:19:17.770Z,72.23
2024-02-22T20:21:50.535Z,72.07
2024-02-22T20:24:23.358Z,72.23
2024-02-22T20:26:56.001Z,72.32
2024-02-22T20:29:28.853Z,72.51
2024-02-22T20:32:03.225Z,72.76
2024-02-22T20:34:35.178Z,72.74
2024-02-22T20:37:07.912Z,72.54
2024-02-22T20:39:40.971Z,72.78
2024-02-22T20:42:17.879Z,72.83
2024-02-22T20:44:52.186Z,72.67
2024-02-22T20:47:26.344Z,72.92
2024-02-22T20:49:58.304Z,72.57
2024-02-22T20:52:30.799Z,72.76
2024-02-22T20:55:04.374Z,72.88
2024-02-22T20:57:36.654Z,73.06
2024-02-22T21:00:12.683Z,72.86
2024-02-22T21:02:44.917Z,73.23
2024-02-22T21:05:17.602Z,73.38
2024-02-22T21:07:50.234Z,73.54
2024-02-22T21:10:23.637Z,73.55
2024-02-22T21:12:55.919Z,73.57
2024-02-22T21:15:30.373Z,73.78
2024-02-22T21:18:04.251Z,73.71
2024-02-22T21:20:36.629Z,74.01
2024-02-22T21:23:08.692Z,73.96
2024-02-22T21:25:41.641Z,73.78
2024-02-22T21:28:19.017Z,74.06
2024-02-22T21:30:52.761Z,74.11
2024-02-22T21:33:26.963Z,74.35
2024-02-22T21:36:00.311Z,74.59
2024-02-22T21:38:34.463Z,74.70
2024-02-22T21:41:09.649Z,74.67
2024-02-22T21:43:43.088Z,74.80
2024-02-22T21:46:16.789Z,74.80
2024-02-22T21:48:49.342Z,74.94
2024-02-22T21:51:21.860Z,75.04
2024-02-22T21:53:54.723Z,75.11
2024-02-22T21:56:29.290Z,75.14
2024-02-22T21:59:01.640Z,75.31
2024-02-22T22:04:24.196Z,75.54
2024-02-22T22:06:56.609Z,75.66
2024-02-22T22:09:29.771Z,75.87
2024-02-22T22:12:02.450Z,75.91
2024-02-22T22:14:35.289Z,76.04
2024-02-22T22:17:08.436Z,76.17
2024-02-22T22:19:40.622Z,76.42
2024-02-22T22:22:13.197Z,76.49
2024-02-22T22:24:45.921Z,76.63
2024-02-22T22:27:19.008Z,76.48
2024-02-22T22:29:51.260Z,76.60
2024-02-22T22:32:24.611Z,76.64
2024-02-22T22:34:57.269Z,76.77
2024-02-22T22:37:30.655Z,76.90
2024-02-22T22:40:03.670Z,77.01
2024-02-22T22:42:35.975Z,76.98
2024-02-22T22:45:09.034Z,76.85
2024-02-22T22:47:41.578Z,76.90
2024-02-22T22:50:14.650Z,76.91
2024-02-22T22:52:47.298Z,76.96
2024-02-22T22:55:19.618Z,76.97
2024-02-22T22:57:51.959Z,77.13
2024-02-22T23:00:26.096Z,77.10
2024-02-22T23:02:59.246Z,77.32
2024-02-22T23:05:32.558Z,77.37
2024-02-22T23:08:05.421Z,77.41
2024-02-22T23:10:37.673Z,77.53
2024-02-22T23:13:09.999Z,77.38
2024-02-22T23:15:43.709Z,77.48
2024-02-22T23:18:16.236Z,77.57
2024-02-22T23:20:48.645Z,77.52
2024-02-22T23:23:20.949Z,77.58
2024-02-22T23:25:54.061Z,77.63
2024-02-22T23:28:26.772Z,77.71
2024-02-22T23:30:59.165Z,77.79
2024-02-22T23:33:31.994Z,77.79
2024-02-22T23:36:04.851Z,77.90
2024-02-22T23:38:38.810Z,77.92
2024-02-22T23:41:22.092Z,77.93
2024-02-22T23:43:44.899Z,77.91
2024-02-22T23:46:17.231Z,77.88
2024-02-22T23:48:49.788Z,77.91
2024-02-22T23:51:22.865Z,77.86
2024-02-22T23:53:54.971Z,78.18
2024-02-22T23:56:28.163Z,77.79
2024-02-22T23:59:01.206Z,77.99
